Time;durP1;ratioP1;P1;durP2;ratioP2;P2;SDS_P1;SDS_P2;PMS_P1;PMS_P2;Temp;Humidity;BMP_temperature;BMP_pressure;BME280_temperature;BME280_humidity;BME280_pressure;Samples;Min_cycle;Max_cycle;Signal;HPM_P1;HPM_P2
2024/03/13 00:01:51;;;;;;;11.00;3.70;;;;;;;;;;5013480;28;20037;-67
2024/03/13 00:04:17;;;;;;;6.28;4.10;;;;;;;;;;5029794;28;20037;-67
2024/03/13 00:06:43;;;;;;;11.15;4.40;;;;;;;;;;5031079;28;20128;-67
2024/03/13 00:09:09;;;;;;;8.35;3.53;;;;;;;;;;5031084;28;20117;-66
2024/03/13 00:11:35;;;;;;;4.82;3.47;;;;;;;;;;5031035;28;20130;-66
2024/03/13 00:14:02;;;;;;;4.80;3.47;;;;;;;;;;5031170;28;20030;-64
2024/03/13 00:16:31;;;;;;;7.72;3.63;;;;;;;;;;5030074;28;20068;-67
2024/03/13 00:18:57;;;;;;;11.15;4.00;;;;;;;;;;5031100;28;20036;-65
2024/03/13 00:21:25;;;;;;;7.47;3.70;;;;;;;;;;5031424;28;20083;-67
2024/03/13 00:23:52;;;;;;;9.25;3.85;;;;;;;;;;5031190;28;20047;-66
2024/03/13 00:26:21;;;;;;;5.88;3.75;;;;;;;;;;5029858;28;20067;-67
2024/03/13 00:28:48;;;;;;;8.93;4.40;;;;;;;;;;5031111;28;20032;-66
2024/03/13 00:31:14;;;;;;;9.98;4.40;;;;;;;;;;5031200;28;20069;-67
2024/03/13 00:33:39;;;;;;;6.82;3.70;;;;;;;;;;5029888;28;20116;-66
2024/03/13 00:36:06;;;;;;;6.85;4.28;;;;;;;;;;5031192;28;20136;-69
2024/03/13 00:38:33;;;;;;;8.07;4.35;;;;;;;;;;5029385;28;20148;-67
2024/03/13 00:40:59;;;;;;;5.43;3.72;;;;;;;;;;5031283;28;20053;-65
2024/03/13 00:43:24;;;;;;;8.20;3.60;;;;;;;;;;5031189;28;20036;-67
2024/03/13 00:45:50;;;;;;;8.00;4.13;;;;;;;;;;5031043;28;20049;-66
2024/03/13 00:48:17;;;;;;;8.93;3.90;;;;;;;;;;5031139;28;20041;-67
2024/03/13 00:50:44;;;;;;;6.75;3.58;;;;;;;;;;5031001;28;20522;-67
2024/03/13 00:53:09;;;;;;;5.72;3.65;;;;;;;;;;5029771;28;20040;-69
2024/03/13 00:55:35;;;;;;;6.47;3.67;;;;;;;;;;5033546;28;20030;-67
2024/03/13 00:58:01;;;;;;;5.72;3.70;;;;;;;;;;5035051;28;20127;-66
2024/03/13 01:00:29;;;;;;;11.38;3.78;;;;;;;;;;5035097;28;20084;-67
2024/03/13 01:02:57;;;;;;;9.30;4.60;;;;;;;;;;5035013;28;20424;-66
2024/03/13 01:05:24;;;;;;;7.53;3.95;;;;;;;;;;5033450;28;20029;-66
2024/03/13 01:07:50;;;;;;;7.40;3.75;;;;;;;;;;5034940;28;20065;-67
2024/03/13 01:10:16;;;;;;;8.57;3.60;;;;;;;;;;5034912;28;20548;-66
2024/03/13 01:12:42;;;;;;;8.88;3.67;;;;;;;;;;5034906;28;20557;-67
2024/03/13 01:15:07;;;;;;;7.97;3.42;;;;;;;;;;5033461;28;20033;-66
2024/03/13 01:17:34;;;;;;;6.07;3.55;;;;;;;;;;5034550;28;20041;-66
2024/03/13 01:20:00;;;;;;;8.80;3.58;;;;;;;;;;5034738;28;20045;-67
2024/03/13 01:22:28;;;;;;;6.78;3.65;;;;;;;;;;5034458;28;20040;-66
2024/03/13 01:24:55;;;;;;;4.13;2.85;;;;;;;;;;5033246;28;20041;-66
2024/03/13 01:27:22;;;;;;;6.85;3.70;;;;;;;;;;5034620;28;20080;-65
2024/03/13 01:29:50;;;;;;;12.55;4.35;;;;;;;;;;5033188;28;20088;-67
2024/03/13 01:32:17;;;;;;;5.97;3.75;;;;;;;;;;5016427;28;20073;-67
2024/03/13 01:34:43;;;;;;;5.75;3.47;;;;;;;;;;5033069;28;20116;-66
2024/03/13 01:39:53;;;;;;;6.13;3.08;;;;;;;;;;5033051;28;20045;-67
2024/03/13 01:56:15;;;;;;;4.50;3.28;;;;;;;;;;5033789;28;20037;-67
2024/03/13 01:58:41;;;;;;;7.93;4.43;;;;;;;;;;5034016;28;20121;-66
2024/03/13 02:03:51;;;;;;;6.90;3.53;;;;;;;;;;5032123;28;20037;-67
2024/03/13 02:06:16;;;;;;;8.77;4.10;;;;;;;;;;5033211;28;20377;-66
2024/03/13 02:08:43;;;;;;;6.75;3.63;;;;;;;;;;5033347;28;20037;-66
2024/03/13 02:11:11;;;;;;;5.88;3.90;;;;;;;;;;5032818;28;20052;-67
2024/03/13 02:13:40;;;;;;;8.68;4.30;;;;;;;;;;5031743;28;20510;-67
2024/03/13 02:16:06;;;;;;;10.52;4.90;;;;;;;;;;5033176;28;20030;-67
2024/03/13 02:18:51;;;;;;;8.20;4.68;;;;;;;;;;5018340;28;20127;-66
2024/03/13 02:21:19;;;;;;;9.90;4.85;;;;;;;;;;5031722;28;20053;-68
2024/03/13 02:23:44;;;;;;;7.97;4.45;;;;;;;;;;5031904;28;20615;-66
2024/03/13 02:26:10;;;;;;;10.60;5.70;;;;;;;;;;5033567;28;20049;-66
2024/03/13 02:28:37;;;;;;;9.93;5.95;;;;;;;;;;5033163;28;20063;-66
2024/03/13 02:31:06;;;;;;;9.45;4.95;;;;;;;;;;5033226;28;20565;-66
2024/03/13 02:33:32;;;;;;;9.25;4.43;;;;;;;;;;5033048;28;20114;-67
2024/03/13 02:35:58;;;;;;;9.05;5.57;;;;;;;;;;5031852;28;20041;-66
2024/03/13 02:38:24;;;;;;;8.10;4.47;;;;;;;;;;5031328;28;20060;-67
2024/03/13 02:40:50;;;;;;;7.38;3.85;;;;;;;;;;5031625;28;20057;-66
2024/03/13 02:43:16;;;;;;;11.73;4.82;;;;;;;;;;5032949;28;20076;-67
2024/03/13 02:45:42;;;;;;;9.40;4.40;;;;;;;;;;5031744;28;20057;-66
2024/03/13 02:48:08;;;;;;;10.88;4.97;;;;;;;;;;5031395;28;20503;-66
2024/03/13 02:50:34;;;;;;;8.63;3.97;;;;;;;;;;5032978;28;20041;-66
2024/03/13 02:53:00;;;;;;;9.98;4.20;;;;;;;;;;5032247;28;20041;-67
2024/03/13 02:55:26;;;;;;;6.72;3.78;;;;;;;;;;5031392;28;20560;-68
2024/03/13 02:57:51;;;;;;;7.43;3.97;;;;;;;;;;5014846;28;20046;-67
2024/03/13 03:00:17;;;;;;;4.28;3.00;;;;;;;;;;5031163;28;20053;-66
2024/03/13 03:02:43;;;;;;;7.07;3.50;;;;;;;;;;5031325;28;20081;-66
2024/03/13 03:05:09;;;;;;;6.22;3.10;;;;;;;;;;5014825;28;20030;-66
2024/03/13 03:07:35;;;;;;;3.97;2.83;;;;;;;;;;5032429;28;20041;-66
2024/03/13 03:10:01;;;;;;;3.55;3.00;;;;;;;;;;5032436;28;20502;-66
2024/03/13 03:12:27;;;;;;;9.85;3.20;;;;;;;;;;5030937;28;20067;-67
2024/03/13 03:14:56;;;;;;;4.57;2.90;;;;;;;;;;5014664;28;20483;-67
2024/03/13 03:17:21;;;;;;;6.03;2.78;;;;;;;;;;5031614;28;20044;-67
2024/03/13 03:19:50;;;;;;;6.85;3.25;;;;;;;;;;5030798;28;20045;-67
2024/03/13 03:22:17;;;;;;;4.82;2.63;;;;;;;;;;5032491;28;20076;-67
2024/03/13 03:24:43;;;;;;;4.05;2.58;;;;;;;;;;5032272;28;20044;-66
2024/03/13 03:27:09;;;;;;;7.40;2.60;;;;;;;;;;5032478;28;20469;-67
2024/03/13 03:29:36;;;;;;;4.30;3.00;;;;;;;;;;5030803;28;20033;-67
2024/03/13 03:32:01;;;;;;;5.32;3.10;;;;;;;;;;5031024;28;20414;-67
2024/03/13 03:34:27;;;;;;;4.13;2.53;;;;;;;;;;5030745;28;20036;-67
2024/03/13 03:36:53;;;;;;;4.28;3.15;;;;;;;;;;5031944;28;20084;-69
2024/03/13 03:39:24;;;;;;;4.88;3.20;;;;;;;;;;5031431;28;20049;-67
2024/03/13 03:41:51;;;;;;;5.38;3.05;;;;;;;;;;5030654;28;20091;-66
2024/03/13 03:44:16;;;;;;;10.13;3.00;;;;;;;;;;5030238;28;20500;-67
2024/03/13 03:46:42;;;;;;;4.82;3.20;;;;;;;;;;5031689;28;20045;-68
2024/03/13 03:49:08;;;;;;;6.22;3.03;;;;;;;;;;5031891;28;20037;-66
2024/03/13 03:51:33;;;;;;;3.55;2.95;;;;;;;;;;5031543;28;20056;-67
2024/03/13 03:54:00;;;;;;;5.90;3.20;;;;;;;;;;5031819;28;20029;-67
2024/03/13 03:56:27;;;;;;;7.05;3.25;;;;;;;;;;5031586;28;20029;-66
2024/03/13 03:58:55;;;;;;;4.78;2.90;;;;;;;;;;5030088;28;20407;-68
2024/03/13 04:01:21;;;;;;;5.95;3.70;;;;;;;;;;5030001;28;20045;-68
2024/03/13 04:03:47;;;;;;;7.43;4.00;;;;;;;;;;5031689;28;20123;-67
2024/03/13 04:06:16;;;;;;;6.40;3.67;;;;;;;;;;4997468;28;20120;-69
2024/03/13 04:08:51;;;;;;;5.47;3.92;;;;;;;;;;5030090;28;20041;-66
2024/03/13 04:11:19;;;;;;;9.73;4.38;;;;;;;;;;5031104;28;20043;-66
2024/03/13 04:13:46;;;;;;;5.43;3.63;;;;;;;;;;5030971;28;20468;-67
2024/03/13 04:16:13;;;;;;;8.57;4.22;;;;;;;;;;5013456;28;20558;-67
2024/03/13 04:18:38;;;;;;;6.18;4.35;;;;;;;;;;5031222;28;20076;-67
2024/03/13 04:21:04;;;;;;;9.70;4.72;;;;;;;;;;5030914;28;20037;-67
2024/03/13 04:23:30;;;;;;;8.25;4.47;;;;;;;;;;5030780;28;20036;-66
2024/03/13 04:25:56;;;;;;;10.40;5.35;;;;;;;;;;5031136;28;20102;-67
2024/03/13 04:28:22;;;;;;;7.25;4.57;;;;;;;;;;5031089;28;20041;-65
2024/03/13 04:30:47;;;;;;;8.02;4.97;;;;;;;;;;5031036;28;20499;-65
2024/03/13 04:33:16;;;;;;;7.65;4.82;;;;;;;;;;5029555;28;20040;-68
2024/03/13 04:35:42;;;;;;;10.90;4.93;;;;;;;;;;5029551;28;20029;-66
2024/03/13 04:38:09;;;;;;;7.80;5.00;;;;;;;;;;5030700;28;20106;-65
2024/03/13 04:40:37;;;;;;;8.48;5.00;;;;;;;;;;5030707;28;20049;-66
2024/03/13 04:43:03;;;;;;;7.78;4.63;;;;;;;;;;5029590;28;20116;-64
2024/03/13 04:45:29;;;;;;;9.05;4.57;;;;;;;;;;5029608;28;20131;-65
2024/03/13 04:47:55;;;;;;;7.88;4.22;;;;;;;;;;5012836;28;20051;-65
2024/03/13 04:50:20;;;;;;;6.43;3.40;;;;;;;;;;5029731;28;20167;-65
2024/03/13 04:52:46;;;;;;;7.68;3.83;;;;;;;;;;5030874;28;20049;-66
2024/03/13 04:55:11;;;;;;;7.07;3.60;;;;;;;;;;5029739;28;20087;-66
2024/03/13 04:57:38;;;;;;;5.90;3.30;;;;;;;;;;5030763;28;20514;-65
2024/03/13 05:00:05;;;;;;;8.80;4.07;;;;;;;;;;5029516;28;20396;-65
2024/03/13 05:02:30;;;;;;;5.65;3.55;;;;;;;;;;5030581;28;20183;-68
2024/03/13 05:04:57;;;;;;;7.22;3.53;;;;;;;;;;5029586;28;20109;-65
2024/03/13 05:07:23;;;;;;;5.60;3.50;;;;;;;;;;5030107;28;20060;-64
2024/03/13 05:09:49;;;;;;;5.28;3.28;;;;;;;;;;5013172;28;20034;-65
2024/03/13 05:12:15;;;;;;;8.50;4.22;;;;;;;;;;5030659;28;20038;-67
2024/03/13 05:14:42;;;;;;;5.35;3.25;;;;;;;;;;5029807;28;20037;-65
2024/03/13 05:17:09;;;;;;;5.47;3.25;;;;;;;;;;5028749;28;20037;-67
2024/03/13 05:19:35;;;;;;;9.20;3.53;;;;;;;;;;5028132;28;20167;-67
2024/03/13 05:22:01;;;;;;;6.97;4.22;;;;;;;;;;5029728;28;20558;-66
2024/03/13 05:24:26;;;;;;;11.23;4.30;;;;;;;;;;5011309;28;20491;-67
2024/03/13 05:26:52;;;;;;;5.53;3.55;;;;;;;;;;5028567;28;20064;-67
2024/03/13 05:29:17;;;;;;;8.73;4.10;;;;;;;;;;5028395;28;20034;-68
2024/03/13 05:31:43;;;;;;;7.32;3.78;;;;;;;;;;5030615;28;20072;-65
2024/03/13 05:34:09;;;;;;;10.45;3.85;;;;;;;;;;5029020;28;20040;-64
2024/03/13 05:36:36;;;;;;;7.18;3.90;;;;;;;;;;5030899;28;20092;-68
2024/03/13 05:39:02;;;;;;;6.43;4.05;;;;;;;;;;5029298;28;20088;-67
2024/03/13 05:41:27;;;;;;;8.13;4.00;;;;;;;;;;5032114;28;20092;-69
2024/03/13 05:43:53;;;;;;;7.97;4.00;;;;;;;;;;5032259;28;20052;-64
2024/03/13 05:46:18;;;;;;;6.15;3.85;;;;;;;;;;5031820;28;20124;-65
2024/03/13 05:48:47;;;;;;;9.05;4.85;;;;;;;;;;5031478;28;20423;-65
2024/03/13 05:51:12;;;;;;;9.27;4.93;;;;;;;;;;5032276;28;20385;-65
2024/03/13 05:53:38;;;;;;;9.38;4.47;;;;;;;;;;5031163;28;20048;-64
2024/03/13 05:56:04;;;;;;;8.30;4.50;;;;;;;;;;5012158;28;20107;-64
2024/03/13 05:58:30;;;;;;;8.10;4.25;;;;;;;;;;5010753;28;20037;-66
2024/03/13 06:00:55;;;;;;;10.73;4.53;;;;;;;;;;5029294;28;20045;-65
2024/03/13 06:03:21;;;;;;;9.65;4.43;;;;;;;;;;5033497;28;20076;-65
2024/03/13 06:05:47;;;;;;;11.32;4.80;;;;;;;;;;5033986;28;20098;-66
2024/03/13 06:08:13;;;;;;;9.45;4.75;;;;;;;;;;5014692;28;20118;-65
2024/03/13 06:10:39;;;;;;;11.77;4.53;;;;;;;;;;5031840;28;20067;-63
2024/03/13 06:13:04;;;;;;;8.20;4.65;;;;;;;;;;5031755;28;20025;-66
2024/03/13 06:15:31;;;;;;;10.70;4.80;;;;;;;;;;5015539;28;20046;-65
2024/03/13 06:17:57;;;;;;;10.70;5.05;;;;;;;;;;4999103;28;20107;-64
2024/03/13 06:20:23;;;;;;;14.88;4.60;;;;;;;;;;5033424;28;20441;-63
2024/03/13 06:22:48;;;;;;;9.38;4.65;;;;;;;;;;5033044;28;20045;-66
2024/03/13 06:25:16;;;;;;;9.82;4.70;;;;;;;;;;5012330;28;20120;-65
2024/03/13 06:27:41;;;;;;;9.95;4.70;;;;;;;;;;5032961;28;20123;-65
2024/03/13 06:30:08;;;;;;;8.98;4.88;;;;;;;;;;5029295;28;20503;-64
2024/03/13 06:32:34;;;;;;;8.57;4.85;;;;;;;;;;5020265;28;20497;-65
2024/03/13 06:35:02;;;;;;;13.25;5.60;;;;;;;;;;5032403;28;20040;-66
2024/03/13 06:37:31;;;;;;;10.53;5.03;;;;;;;;;;5032532;28;20072;-66
2024/03/13 06:39:57;;;;;;;7.60;4.85;;;;;;;;;;5031389;28;20055;-65
2024/03/13 06:42:26;;;;;;;9.35;4.43;;;;;;;;;;5032338;28;20033;-67
2024/03/13 06:44:52;;;;;;;9.75;5.03;;;;;;;;;;5032479;28;20033;-66
2024/03/13 06:47:17;;;;;;;9.40;4.93;;;;;;;;;;5014402;28;20037;-66
2024/03/13 06:49:47;;;;;;;14.45;5.00;;;;;;;;;;5032897;28;20029;-66
2024/03/13 06:52:13;;;;;;;10.38;4.97;;;;;;;;;;5032830;28;20045;-66
2024/03/13 06:54:40;;;;;;;9.20;5.53;;;;;;;;;;5031140;28;20495;-66
2024/03/13 06:57:06;;;;;;;12.50;5.25;;;;;;;;;;5032651;28;20064;-67
2024/03/13 06:59:33;;;;;;;10.02;5.05;;;;;;;;;;5031123;28;20033;-67
2024/03/13 07:02:00;;;;;;;9.70;5.18;;;;;;;;;;5030886;28;20041;-66
2024/03/13 07:04:25;;;;;;;9.43;5.03;;;;;;;;;;5032209;28;20463;-68
2024/03/13 07:06:57;;;;;;;10.10;4.55;;;;;;;;;;5032165;28;20124;-65
2024/03/13 07:09:27;;;;;;;9.13;4.70;;;;;;;;;;5030708;28;20055;-65
2024/03/13 07:11:52;;;;;;;8.85;4.43;;;;;;;;;;5032042;28;20073;-65
2024/03/13 07:14:18;;;;;;;6.47;4.32;;;;;;;;;;5030749;28;20068;-66
2024/03/13 07:16:44;;;;;;;8.65;4.10;;;;;;;;;;5014088;28;20067;-69
2024/03/13 07:19:11;;;;;;;5.78;3.55;;;;;;;;;;5032064;28;20042;-63
2024/03/13 07:21:37;;;;;;;7.25;4.10;;;;;;;;;;5032085;28;20060;-67
2024/03/13 07:24:03;;;;;;;5.47;3.60;;;;;;;;;;5030543;28;20030;-66
2024/03/13 07:26:29;;;;;;;7.95;4.18;;;;;;;;;;5032280;28;20033;-67
2024/03/13 07:28:55;;;;;;;8.73;3.38;;;;;;;;;;5031559;28;20085;-65
2024/03/13 07:31:23;;;;;;;7.85;3.30;;;;;;;;;;5032245;28;20044;-67
2024/03/13 07:33:50;;;;;;;6.65;3.25;;;;;;;;;;5030306;28;20033;-66
2024/03/13 07:36:16;;;;;;;5.95;3.25;;;;;;;;;;5031950;28;20044;-66
2024/03/13 07:38:41;;;;;;;5.57;2.90;;;;;;;;;;5029672;28;20079;-66
2024/03/13 07:41:11;;;;;;;7.57;3.35;;;;;;;;;;5031711;28;20092;-65
2024/03/13 07:43:37;;;;;;;5.68;3.15;;;;;;;;;;5031668;28;20029;-67
2024/03/13 07:46:03;;;;;;;16.73;3.80;;;;;;;;;;5031918;28;20430;-66
2024/03/13 07:48:28;;;;;;;10.63;2.92;;;;;;;;;;5031160;28;20029;-67
2024/03/13 07:50:54;;;;;;;4.70;2.72;;;;;;;;;;5031485;28;20466;-68
2024/03/13 07:53:21;;;;;;;4.32;2.42;;;;;;;;;;5031016;28;20033;-68
2024/03/13 07:55:47;;;;;;;4.78;2.42;;;;;;;;;;5030340;28;20043;-66
2024/03/13 07:58:13;;;;;;;3.22;2.33;;;;;;;;;;5031178;28;20055;-66
2024/03/13 08:00:39;;;;;;;4.97;2.40;;;;;;;;;;5031186;28;20053;-68
2024/03/13 08:03:05;;;;;;;6.45;2.30;;;;;;;;;;5030195;28;20075;-67
2024/03/13 08:05:31;;;;;;;3.45;2.08;;;;;;;;;;5013658;28;20503;-66
2024/03/13 08:07:57;;;;;;;3.40;2.28;;;;;;;;;;5031036;28;20065;-63
2024/03/13 08:10:25;;;;;;;4.95;2.22;;;;;;;;;;5011874;28;20065;-62
2024/03/13 08:12:52;;;;;;;6.55;2.70;;;;;;;;;;5011119;28;20107;-64
2024/03/13 08:15:17;;;;;;;3.83;2.72;;;;;;;;;;5028876;28;20064;-64
2024/03/13 08:17:45;;;;;;;2.72;2.42;;;;;;;;;;5031348;28;20064;-62
2024/03/13 08:20:14;;;;;;;5.65;2.72;;;;;;;;;;5029619;28;20049;-63
2024/03/13 08:22:42;;;;;;;3.38;2.13;;;;;;;;;;5030161;28;20083;-65
2024/03/13 08:25:09;;;;;;;2.70;2.40;;;;;;;;;;5017067;28;20385;-65
2024/03/13 08:27:34;;;;;;;4.45;2.30;;;;;;;;;;5010047;28;20076;-63
2024/03/13 08:30:00;;;;;;;5.43;2.45;;;;;;;;;;5028117;28;20068;-64
2024/03/13 08:32:25;;;;;;;4.70;2.70;;;;;;;;;;5031389;28;20274;-65
2024/03/13 08:34:51;;;;;;;5.78;3.08;;;;;;;;;;5030840;28;20037;-65
2024/03/13 08:37:17;;;;;;;4.63;2.92;;;;;;;;;;5029900;28;20037;-64
2024/03/13 08:39:42;;;;;;;6.38;2.78;;;;;;;;;;5029383;28;20081;-65
2024/03/13 08:42:10;;;;;;;5.05;2.75;;;;;;;;;;5031162;28;20037;-65
2024/03/13 08:44:35;;;;;;;4.72;2.55;;;;;;;;;;5029219;28;20036;-65
2024/03/13 08:47:01;;;;;;;5.78;2.40;;;;;;;;;;5031091;28;20038;-64
2024/03/13 08:49:27;;;;;;;4.95;2.90;;;;;;;;;;5031587;28;20037;-64
2024/03/13 08:51:53;;;;;;;4.25;2.47;;;;;;;;;;5014003;28;20044;-65
2024/03/13 08:54:19;;;;;;;4.85;2.85;;;;;;;;;;5030687;28;20087;-65
2024/03/13 08:56:47;;;;;;;6.70;2.60;;;;;;;;;;5029436;28;20486;-66
2024/03/13 08:59:12;;;;;;;4.07;2.72;;;;;;;;;;5010571;28;20463;-68
2024/03/13 09:01:41;;;;;;;4.80;2.22;;;;;;;;;;5027778;28;20072;-68
2024/03/13 09:04:08;;;;;;;3.63;2.63;;;;;;;;;;5026979;28;20041;-68
2024/03/13 09:06:36;;;;;;;4.70;2.47;;;;;;;;;;5028260;28;20033;-67
2024/03/13 09:09:05;;;;;;;3.72;2.53;;;;;;;;;;5028740;28;20072;-69
2024/03/13 09:11:31;;;;;;;4.05;2.80;;;;;;;;;;5027195;28;20053;-66
2024/03/13 09:14:04;;;;;;;3.42;2.60;;;;;;;;;;5029302;28;20037;-68
2024/03/13 09:16:35;;;;;;;3.80;2.75;;;;;;;;;;5033114;28;20120;-69
2024/03/13 09:19:04;;;;;;;5.30;2.75;;;;;;;;;;5037465;28;20383;-67
2024/03/13 09:21:29;;;;;;;8.90;2.55;;;;;;;;;;5032147;28;20049;-69
2024/03/13 09:23:57;;;;;;;3.17;2.40;;;;;;;;;;5033201;28;20041;-69
2024/03/13 09:26:23;;;;;;;4.75;2.83;;;;;;;;;;5034086;28;20041;-71
2024/03/13 09:28:49;;;;;;;3.53;2.38;;;;;;;;;;5000022;28;20045;-68
2024/03/13 09:31:14;;;;;;;5.18;3.15;;;;;;;;;;5032501;28;20044;-67
2024/03/13 09:33:40;;;;;;;5.15;2.83;;;;;;;;;;5031901;28;20041;-67
2024/03/13 09:36:08;;;;;;;5.38;3.13;;;;;;;;;;5031476;28;20041;-68
2024/03/13 09:38:33;;;;;;;7.55;3.70;;;;;;;;;;5032951;28;20315;-67
2024/03/13 09:41:03;;;;;;;6.90;3.58;;;;;;;;;;5030435;28;20053;-68
2024/03/13 09:43:29;;;;;;;6.25;3.47;;;;;;;;;;5031207;28;20103;-69
2024/03/13 09:45:56;;;;;;;7.03;3.63;;;;;;;;;;5033662;28;20121;-68
2024/03/13 09:51:15;;;;;;;6.28;3.45;;;;;;;;;;5018760;28;20134;-68
2024/03/13 09:53:41;;;;;;;4.95;3.65;;;;;;;;;;5033203;28;20124;-70
2024/03/13 09:56:10;;;;;;;5.38;3.63;;;;;;;;;;5033137;28;20067;-66
2024/03/13 09:58:38;;;;;;;8.77;3.93;;;;;;;;;;5031743;28;20025;-67
2024/03/13 10:01:04;;;;;;;6.82;3.97;;;;;;;;;;5032843;28;20327;-69
2024/03/13 10:03:31;;;;;;;5.10;3.60;;;;;;;;;;5015560;28;20061;-69
2024/03/13 10:06:05;;;;;;;6.55;3.83;;;;;;;;;;5032428;28;20076;-69
2024/03/13 10:08:32;;;;;;;5.78;4.00;;;;;;;;;;5032108;28;20403;-69
2024/03/13 10:11:01;;;;;;;6.95;4.70;;;;;;;;;;5032157;28;20530;-69
2024/03/13 10:13:29;;;;;;;5.90;3.90;;;;;;;;;;5033160;28;20387;-68
2024/03/13 10:15:57;;;;;;;8.35;4.35;;;;;;;;;;5028582;28;20083;-68
2024/03/13 10:18:24;;;;;;;9.15;4.38;;;;;;;;;;5032808;28;21122;-68
2024/03/13 10:20:57;;;;;;;8.18;4.45;;;;;;;;;;5026753;28;20056;-68
2024/03/13 10:23:24;;;;;;;7.63;3.92;;;;;;;;;;5029138;28;20021;-69
2024/03/13 10:25:54;;;;;;;6.55;4.20;;;;;;;;;;5028003;28;20040;-69
2024/03/13 10:28:23;;;;;;;9.20;4.20;;;;;;;;;;5032450;28;20522;-68
2024/03/13 10:30:53;;;;;;;6.72;3.75;;;;;;;;;;5037694;28;20032;-66
2024/03/13 10:33:19;;;;;;;7.82;4.32;;;;;;;;;;5032720;28;20044;-66
2024/03/13 10:35:45;;;;;;;8.32;4.63;;;;;;;;;;5032316;28;20446;-67
2024/03/13 10:38:12;;;;;;;7.43;4.45;;;;;;;;;;5032698;28;20111;-69
2024/03/13 10:40:41;;;;;;;7.57;4.32;;;;;;;;;;5032636;28;20081;-65
2024/03/13 10:43:10;;;;;;;6.32;3.97;;;;;;;;;;5032597;28;20506;-64
2024/03/13 10:45:36;;;;;;;8.57;4.65;;;;;;;;;;5030782;28;20140;-65
2024/03/13 10:48:03;;;;;;;6.82;4.35;;;;;;;;;;5032592;28;20037;-64
2024/03/13 10:50:29;;;;;;;8.73;4.15;;;;;;;;;;5032299;28;20044;-67
2024/03/13 10:52:55;;;;;;;6.60;4.18;;;;;;;;;;5032952;28;20037;-66
2024/03/13 10:55:20;;;;;;;8.68;4.72;;;;;;;;;;5014431;28;20034;-66
2024/03/13 10:57:50;;;;;;;9.35;4.68;;;;;;;;;;5034846;28;20093;-66
2024/03/13 11:00:21;;;;;;;8.13;4.80;;;;;;;;;;5029431;28;20087;-70
2024/03/13 11:02:49;;;;;;;10.40;4.75;;;;;;;;;;5032472;28;20046;-70
2024/03/13 11:05:15;;;;;;;8.10;4.45;;;;;;;;;;5031043;28;20041;-69
2024/03/13 11:07:41;;;;;;;7.82;4.75;;;;;;;;;;5032580;28;20050;-69
2024/03/13 11:10:13;;;;;;;6.90;4.47;;;;;;;;;;5030783;28;20403;-70
2024/03/13 11:12:45;;;;;;;7.22;4.40;;;;;;;;;;5032537;28;20427;-70
2024/03/13 11:15:14;;;;;;;7.43;4.18;;;;;;;;;;5032161;28;20127;-69
2024/03/13 11:17:46;;;;;;;7.50;4.77;;;;;;;;;;5030748;28;20040;-69
2024/03/13 11:20:17;;;;;;;7.55;4.30;;;;;;;;;;5030565;28;20324;-69
2024/03/13 11:22:45;;;;;;;7.40;4.65;;;;;;;;;;5031024;28;20037;-69
2024/03/13 11:25:17;;;;;;;8.18;4.10;;;;;;;;;;5032269;28;20107;-69
2024/03/13 11:27:49;;;;;;;6.35;4.35;;;;;;;;;;5032229;28;20045;-67
2024/03/13 11:30:19;;;;;;;5.78;4.18;;;;;;;;;;5030529;28;20033;-68
2024/03/13 11:32:45;;;;;;;7.35;4.50;;;;;;;;;;5030951;28;20045;-65
2024/03/13 11:35:11;;;;;;;7.93;4.50;;;;;;;;;;5031379;28;20499;-68
2024/03/13 11:37:36;;;;;;;6.65;4.50;;;;;;;;;;5029938;28;20034;-67
2024/03/13 11:40:02;;;;;;;7.57;4.18;;;;;;;;;;5030985;28;20057;-64
2024/03/13 11:42:30;;;;;;;11.00;7.07;;;;;;;;;;5014212;28;20048;-67
2024/03/13 11:45:09;;;;;;;8.88;4.20;;;;;;;;;;5030404;28;20041;-65
2024/03/13 11:47:37;;;;;;;6.15;4.20;;;;;;;;;;5031704;28;20103;-65
2024/03/13 11:50:03;;;;;;;6.78;4.53;;;;;;;;;;5031864;28;20037;-67
2024/03/13 11:52:31;;;;;;;8.35;4.65;;;;;;;;;;5031467;28;20042;-66
2024/03/13 11:54:56;;;;;;;8.63;4.20;;;;;;;;;;5030326;28;20032;-66
2024/03/13 11:57:24;;;;;;;10.18;5.03;;;;;;;;;;5031566;28;20033;-68
2024/03/13 11:59:51;;;;;;;6.25;3.78;;;;;;;;;;5030062;28;20049;-69
2024/03/13 12:02:32;;;;;;;5.93;4.30;;;;;;;;;;5030269;28;20538;-64
2024/03/13 12:05:04;;;;;;;7.32;3.90;;;;;;;;;;5031586;28;20034;-64
2024/03/13 12:07:36;;;;;;;6.47;4.57;;;;;;;;;;5031398;28;20033;-66
2024/03/13 12:10:02;;;;;;;5.85;4.20;;;;;;;;;;5030072;28;20029;-65
2024/03/13 12:12:30;;;;;;;6.45;3.92;;;;;;;;;;5031075;28;20132;-67
2024/03/13 12:14:55;;;;;;;9.77;4.28;;;;;;;;;;5031411;28;20468;-65
2024/03/13 12:17:21;;;;;;;8.75;4.57;;;;;;;;;;5031167;28;20037;-67
2024/03/13 12:19:47;;;;;;;6.75;4.38;;;;;;;;;;5031202;28;20132;-67
2024/03/13 12:22:13;;;;;;;5.18;3.80;;;;;;;;;;5029539;28;20084;-66
2024/03/13 12:24:39;;;;;;;7.68;4.18;;;;;;;;;;5031152;28;20400;-66
2024/03/13 12:27:06;;;;;;;6.47;3.83;;;;;;;;;;5031261;28;20120;-67
2024/03/13 12:29:33;;;;;;;6.30;4.07;;;;;;;;;;5031037;28;20042;-65
2024/03/13 12:31:59;;;;;;;6.03;3.90;;;;;;;;;;5013500;28;20461;-65
2024/03/13 12:34:25;;;;;;;4.60;3.45;;;;;;;;;;5031049;28;20048;-66
2024/03/13 12:36:51;;;;;;;7.00;4.25;;;;;;;;;;5029619;28;20045;-66
2024/03/13 12:39:17;;;;;;;8.77;4.38;;;;;;;;;;5029587;28;20053;-64
2024/03/13 12:41:44;;;;;;;12.70;4.78;;;;;;;;;;5031316;28;20148;-65
2024/03/13 12:44:09;;;;;;;6.50;4.32;;;;;;;;;;5029239;28;20095;-69
2024/03/13 12:46:35;;;;;;;7.63;4.75;;;;;;;;;;5031087;28;20065;-70
2024/03/13 12:49:01;;;;;;;8.57;4.05;;;;;;;;;;5032459;28;20045;-69
2024/03/13 12:51:29;;;;;;;5.97;4.07;;;;;;;;;;5035076;28;20041;-69
2024/03/13 12:54:03;;;;;;;5.97;4.13;;;;;;;;;;5034226;28;20503;-69
2024/03/13 12:56:29;;;;;;;6.72;4.40;;;;;;;;;;5034836;28;20037;-69
2024/03/13 12:58:57;;;;;;;8.00;4.57;;;;;;;;;;5034237;28;20055;-67
2024/03/13 13:01:24;;;;;;;6.63;4.38;;;;;;;;;;5033737;28;20096;-65
2024/03/13 13:03:50;;;;;;;8.50;4.43;;;;;;;;;;5034492;28;20033;-68
2024/03/13 13:06:17;;;;;;;5.85;3.95;;;;;;;;;;5035089;28;20041;-68
2024/03/13 13:08:45;;;;;;;7.50;4.30;;;;;;;;;;5034482;28;20447;-68
2024/03/13 13:11:12;;;;;;;12.55;4.68;;;;;;;;;;5034527;28;20107;-68
2024/03/13 13:13:38;;;;;;;18.38;12.55;;;;;;;;;;5016365;28;20030;-68
2024/03/13 13:16:06;;;;;;;9.43;5.28;;;;;;;;;;5027030;28;20029;-68
2024/03/13 13:18:31;;;;;;;7.35;4.03;;;;;;;;;;5018058;28;20111;-67
2024/03/13 13:20:58;;;;;;;5.68;3.78;;;;;;;;;;5032233;28;20531;-66
2024/03/13 13:23:24;;;;;;;6.30;4.05;;;;;;;;;;5015303;28;20034;-68
2024/03/13 13:25:50;;;;;;;7.20;3.95;;;;;;;;;;5033713;28;20116;-66
2024/03/13 13:28:17;;;;;;;6.43;3.33;;;;;;;;;;5034448;28;20121;-66
2024/03/13 13:30:45;;;;;;;7.93;4.13;;;;;;;;;;5034374;28;20037;-66
2024/03/13 13:33:10;;;;;;;6.25;3.80;;;;;;;;;;5033339;28;20041;-68
2024/03/13 13:35:36;;;;;;;7.88;3.65;;;;;;;;;;5033324;28;20236;-69
2024/03/13 13:38:02;;;;;;;7.22;3.58;;;;;;;;;;5030780;28;20040;-70
2024/03/13 13:40:27;;;;;;;5.32;3.05;;;;;;;;;;5032676;28;20045;-73
2024/03/13 13:42:56;;;;;;;6.03;3.33;;;;;;;;;;5034164;28;20041;-70
2024/03/13 13:45:23;;;;;;;5.38;3.03;;;;;;;;;;5034157;28;20029;-69
2024/03/13 13:47:52;;;;;;;8.65;3.42;;;;;;;;;;5032862;28;20037;-70
2024/03/13 13:50:18;;;;;;;7.07;3.20;;;;;;;;;;5033665;28;20116;-70
2024/03/13 13:52:45;;;;;;;11.98;3.60;;;;;;;;;;5034202;28;20037;-67
2024/03/13 13:55:12;;;;;;;6.32;3.28;;;;;;;;;;5033687;28;20041;-69
2024/03/13 13:57:38;;;;;;;5.85;3.28;;;;;;;;;;5033797;28;20052;-64
2024/03/13 14:00:12;;;;;;;6.07;3.40;;;;;;;;;;5032640;28;20073;-67
2024/03/13 14:02:38;;;;;;;6.20;2.95;;;;;;;;;;5015983;28;20507;-69
2024/03/13 14:05:09;;;;;;;7.22;3.38;;;;;;;;;;5033539;28;20171;-69
2024/03/13 14:07:38;;;;;;;7.20;3.15;;;;;;;;;;5033322;28;20087;-68
2024/03/13 14:10:07;;;;;;;4.25;2.78;;;;;;;;;;5033239;28;20529;-67
2024/03/13 14:12:33;;;;;;;6.63;2.70;;;;;;;;;;4999456;28;20415;-68
2024/03/13 14:15:00;;;;;;;6.55;2.40;;;;;;;;;;5031694;28;20037;-67
2024/03/13 14:17:28;;;;;;;4.57;2.33;;;;;;;;;;5031575;28;20502;-67
2024/03/13 14:19:58;;;;;;;7.15;2.80;;;;;;;;;;5031660;28;20037;-67
2024/03/13 14:22:24;;;;;;;5.65;2.40;;;;;;;;;;5031856;28;20041;-68
2024/03/13 14:24:50;;;;;;;3.47;2.40;;;;;;;;;;5031520;28;20040;-67
2024/03/13 14:27:15;;;;;;;4.03;1.83;;;;;;;;;;5032791;28;20530;-68
2024/03/13 14:29:41;;;;;;;4.72;2.38;;;;;;;;;;5032899;28;20041;-68
2024/03/13 14:32:08;;;;;;;6.22;2.40;;;;;;;;;;5033364;28;20491;-68
2024/03/13 14:34:38;;;;;;;3.25;1.95;;;;;;;;;;5031752;28;20319;-66
2024/03/13 14:37:05;;;;;;;;;;;;;;;;;;5032167;28;20132;-67
2024/03/13 14:39:31;;;;;;;5.47;2.05;;;;;;;;;;5032754;28;20086;-66
2024/03/13 14:41:57;;;;;;;4.85;2.40;;;;;;;;;;5031970;28;20128;-67
2024/03/13 14:44:23;;;;;;;5.85;2.08;;;;;;;;;;5014968;28;20300;-66
2024/03/13 14:46:50;;;;;;;5.13;2.25;;;;;;;;;;5032911;28;20063;-67
2024/03/13 14:49:18;;;;;;;2.67;2.17;;;;;;;;;;5032894;28;20583;-68
2024/03/13 14:51:44;;;;;;;4.65;2.20;;;;;;;;;;5031757;28;20041;-67
2024/03/13 14:54:10;;;;;;;3.85;2.10;;;;;;;;;;5031294;28;20025;-68
2024/03/13 14:56:36;;;;;;;4.13;2.35;;;;;;;;;;5031132;28;20041;-65
2024/03/13 14:59:02;;;;;;;4.72;2.35;;;;;;;;;;5032862;28;20037;-67
2024/03/13 15:01:27;;;;;;;8.18;3.10;;;;;;;;;;5032249;28;20132;-69
2024/03/13 15:04:00;;;;;;;4.43;2.58;;;;;;;;;;5032509;28;20034;-65